CCR1023 SDIM-SBMT
Flight info
| Callsign | CCR1023 |
|---|---|
| Flight time | 0h 32m |
| Altitude | 5500 |
| Route | 2353S04633W REA 2331S04635W |
| Aircraft | C208/L-SDFGHR/L |
Departure
| Time | 2026-05-06 19:16 |
|---|---|
| Airport | Itanhaém Airport (SDIM) |
Arrival
| Time | 2026-05-06 19:48 |
|---|---|
| Airport | Campo de Marte Airport (SBMT) |
| Time | Latitude | Longitude | Altitude | Speed | Heading |
|---|---|---|---|---|---|
| 2026-05-06 18:52 | -24.16520 | -46.78541 | 19 ft | 0 kts | 308° |
| 2026-05-06 18:53 | -24.16519 | -46.78542 | 19 ft | 0 kts | 308° |
| 2026-05-06 18:58 | -24.16508 | -46.78543 | 19 ft | 4 kts | 4° |
| 2026-05-06 18:59 | -24.16463 | -46.78600 | 19 ft | 7 kts | 301° |
| 2026-05-06 18:59 | -24.16396 | -46.78595 | 19 ft | 8 kts | 39° |
| 2026-05-06 18:59 | -24.16389 | -46.78589 | 19 ft | 0 kts | 37° |
| 2026-05-06 19:00 | -24.16382 | -46.78583 | 19 ft | 0 kts | 37° |
| 2026-05-06 19:02 | -24.16381 | -46.78583 | 19 ft | 0 kts | 37° |
| 2026-05-06 19:04 | -24.16381 | -46.78582 | 19 ft | 0 kts | 37° |
| 2026-05-06 19:07 | -24.16380 | -46.78582 | 19 ft | 0 kts | 37° |
| 2026-05-06 19:10 | -24.16380 | -46.78581 | 19 ft | 0 kts | 37° |
| 2026-05-06 19:14 | -24.16379 | -46.78581 | 19 ft | 0 kts | 37° |
| 2026-05-06 19:14 | -24.16374 | -46.78577 | 19 ft | 3 kts | 37° |
| 2026-05-06 19:14 | -24.16345 | -46.78554 | 19 ft | 4 kts | 19° |
| 2026-05-06 19:14 | -24.16331 | -46.78566 | 19 ft | 0 kts | 308° |
| 2026-05-06 19:15 | -24.16324 | -46.78575 | 19 ft | 12 kts | 308° |
| 2026-05-06 19:15 | -24.16122 | -46.78858 | 19 ft | 76 kts | 311° |
| 2026-05-06 19:16 | -24.15741 | -46.79384 | 146 ft | 92 kts | 306° |
| 2026-05-06 19:16 | -24.15413 | -46.79956 | 434 ft | 87 kts | 290° |
| 2026-05-06 19:16 | -24.15396 | -46.80595 | 718 ft | 80 kts | 241° |
| 2026-05-06 19:16 | -24.15832 | -46.80861 | 970 ft | 78 kts | 166° |
| 2026-05-06 19:17 | -24.16289 | -46.80548 | 1207 ft | 78 kts | 131° |
| 2026-05-06 19:17 | -24.16544 | -46.80049 | 1427 ft | 81 kts | 94° |
| 2026-05-06 19:17 | -24.16745 | -46.79442 | 1631 ft | 85 kts | 105° |
| 2026-05-06 19:17 | -24.16787 | -46.78791 | 1827 ft | 92 kts | 84° |
| 2026-05-06 19:18 | -24.16736 | -46.78008 | 1887 ft | 110 kts | 85° |
| 2026-05-06 19:18 | -24.16661 | -46.77121 | 1993 ft | 122 kts | 84° |
| 2026-05-06 19:18 | -24.16579 | -46.76187 | 2172 ft | 125 kts | 84° |
| 2026-05-06 19:18 | -24.16243 | -46.75333 | 2332 ft | 128 kts | 43° |
| 2026-05-06 19:19 | -24.15519 | -46.74769 | 2526 ft | 129 kts | 32° |
| 2026-05-06 19:19 | -24.14752 | -46.74251 | 2696 ft | 131 kts | 32° |
| 2026-05-06 19:19 | -24.13965 | -46.73732 | 2865 ft | 132 kts | 33° |
| 2026-05-06 19:19 | -24.13197 | -46.73169 | 3032 ft | 134 kts | 34° |
| 2026-05-06 19:20 | -24.12428 | -46.72594 | 3199 ft | 134 kts | 34° |
| 2026-05-06 19:20 | -24.11651 | -46.72013 | 3365 ft | 135 kts | 34° |
| 2026-05-06 19:20 | -24.10874 | -46.71431 | 3530 ft | 136 kts | 34° |
| 2026-05-06 19:20 | -24.10091 | -46.70846 | 3695 ft | 136 kts | 34° |
| 2026-05-06 19:21 | -24.09308 | -46.70260 | 3860 ft | 136 kts | 34° |
| 2026-05-06 19:21 | -24.08525 | -46.69675 | 4023 ft | 137 kts | 34° |
| 2026-05-06 19:21 | -24.07730 | -46.69081 | 4150 ft | 140 kts | 34° |
| 2026-05-06 19:21 | -24.06906 | -46.68465 | 4196 ft | 147 kts | 34° |
| 2026-05-06 19:22 | -24.06044 | -46.67822 | 4204 ft | 157 kts | 34° |
| 2026-05-06 19:22 | -24.05131 | -46.67136 | 4198 ft | 162 kts | 35° |
| 2026-05-06 19:22 | -24.04209 | -46.66416 | 4195 ft | 164 kts | 36° |
| 2026-05-06 19:22 | -24.03279 | -46.65672 | 4193 ft | 166 kts | 36° |
| 2026-05-06 19:23 | -24.02347 | -46.64926 | 4192 ft | 166 kts | 36° |
| 2026-05-06 19:23 | -24.01395 | -46.64200 | 4191 ft | 167 kts | 34° |
| 2026-05-06 19:23 | -24.00439 | -46.63484 | 4191 ft | 167 kts | 34° |
| 2026-05-06 19:23 | -23.99476 | -46.62766 | 4191 ft | 167 kts | 34° |
| 2026-05-06 19:24 | -23.98519 | -46.62050 | 4191 ft | 167 kts | 34° |
| 2026-05-06 19:24 | -23.97564 | -46.61332 | 4191 ft | 166 kts | 34° |
| 2026-05-06 19:24 | -23.96609 | -46.60614 | 4191 ft | 166 kts | 34° |
| 2026-05-06 19:24 | -23.95656 | -46.59898 | 4191 ft | 166 kts | 34° |
| 2026-05-06 19:25 | -23.94705 | -46.59183 | 4191 ft | 166 kts | 34° |
| 2026-05-06 19:25 | -23.93751 | -46.58466 | 4191 ft | 166 kts | 34° |
| 2026-05-06 19:25 | -23.92812 | -46.57761 | 4191 ft | 166 kts | 34° |
| 2026-05-06 19:25 | -23.91859 | -46.57045 | 4191 ft | 166 kts | 34° |
| 2026-05-06 19:26 | -23.90908 | -46.56330 | 4191 ft | 166 kts | 34° |
| 2026-05-06 19:26 | -23.89962 | -46.55609 | 4189 ft | 166 kts | 37° |
| 2026-05-06 19:26 | -23.89074 | -46.54793 | 4192 ft | 167 kts | 41° |
| 2026-05-06 19:26 | -23.88211 | -46.53948 | 4191 ft | 167 kts | 42° |
| 2026-05-06 19:27 | -23.87350 | -46.53096 | 4191 ft | 167 kts | 42° |
| 2026-05-06 19:27 | -23.86490 | -46.52245 | 4191 ft | 167 kts | 42° |
| 2026-05-06 19:27 | -23.85630 | -46.51392 | 4191 ft | 167 kts | 42° |
| 2026-05-06 19:27 | -23.84770 | -46.50540 | 4191 ft | 167 kts | 42° |
| 2026-05-06 19:28 | -23.83910 | -46.49688 | 4191 ft | 167 kts | 42° |
| 2026-05-06 19:28 | -23.83048 | -46.48834 | 4191 ft | 167 kts | 42° |
| 2026-05-06 19:28 | -23.82187 | -46.47981 | 4191 ft | 167 kts | 42° |
| 2026-05-06 19:28 | -23.81328 | -46.47131 | 4191 ft | 167 kts | 42° |
| 2026-05-06 19:29 | -23.80479 | -46.46291 | 4191 ft | 167 kts | 42° |
| 2026-05-06 19:29 | -23.79609 | -46.45429 | 4191 ft | 167 kts | 42° |
| 2026-05-06 19:29 | -23.78762 | -46.44592 | 4191 ft | 166 kts | 42° |
| 2026-05-06 19:29 | -23.77904 | -46.43746 | 4191 ft | 166 kts | 42° |
| 2026-05-06 19:30 | -23.77044 | -46.42901 | 4191 ft | 166 kts | 42° |
| 2026-05-06 19:30 | -23.76180 | -46.42055 | 4191 ft | 166 kts | 42° |
| 2026-05-06 19:30 | -23.75317 | -46.41213 | 4191 ft | 166 kts | 42° |
| 2026-05-06 19:30 | -23.74455 | -46.40374 | 4192 ft | 166 kts | 41° |
| 2026-05-06 19:31 | -23.73608 | -46.39518 | 4191 ft | 166 kts | 42° |
| 2026-05-06 19:31 | -23.72767 | -46.38656 | 4189 ft | 166 kts | 43° |
| 2026-05-06 19:31 | -23.71046 | -46.36971 | 4191 ft | 166 kts | 42° |
| 2026-05-06 19:32 | -23.70184 | -46.36131 | 4191 ft | 166 kts | 42° |
| 2026-05-06 19:32 | -23.69345 | -46.35260 | 4191 ft | 166 kts | 45° |
| 2026-05-06 19:32 | -23.68521 | -46.34398 | 4191 ft | 166 kts | 43° |
| 2026-05-06 19:32 | -23.67677 | -46.33535 | 4191 ft | 166 kts | 43° |
| 2026-05-06 19:33 | -23.66832 | -46.32672 | 4191 ft | 166 kts | 43° |
| 2026-05-06 19:33 | -23.65987 | -46.31808 | 4191 ft | 167 kts | 43° |
| 2026-05-06 19:33 | -23.65141 | -46.30943 | 4191 ft | 167 kts | 43° |
| 2026-05-06 19:33 | -23.64295 | -46.30079 | 4191 ft | 167 kts | 43° |
| 2026-05-06 19:34 | -23.63445 | -46.29212 | 4191 ft | 167 kts | 43° |
| 2026-05-06 19:34 | -23.62597 | -46.28346 | 4191 ft | 167 kts | 43° |
| 2026-05-06 19:34 | -23.62317 | -46.28061 | 4191 ft | 167 kts | 43° |
| 2026-05-06 19:34 | -23.61469 | -46.27196 | 4191 ft | 167 kts | 43° |
| 2026-05-06 19:35 | -23.60620 | -46.26331 | 4191 ft | 167 kts | 43° |
| 2026-05-06 19:35 | -23.59772 | -46.25466 | 4191 ft | 167 kts | 43° |
| 2026-05-06 19:35 | -23.58860 | -46.24690 | 4179 ft | 167 kts | 24° |
| 2026-05-06 19:35 | -23.57727 | -46.24680 | 4187 ft | 166 kts | 338° |
| 2026-05-06 19:36 | -23.56922 | -46.25533 | 4196 ft | 166 kts | 296° |
| 2026-05-06 19:36 | -23.56583 | -46.26715 | 4202 ft | 166 kts | 283° |
| 2026-05-06 19:36 | -23.56413 | -46.27964 | 4194 ft | 167 kts | 274° |
| 2026-05-06 19:36 | -23.56386 | -46.29228 | 4192 ft | 167 kts | 268° |
| 2026-05-06 19:37 | -23.56464 | -46.30489 | 4191 ft | 167 kts | 265° |
| 2026-05-06 19:37 | -23.56563 | -46.31753 | 4191 ft | 167 kts | 265° |
| 2026-05-06 19:37 | -23.56664 | -46.33016 | 4191 ft | 167 kts | 265° |
| 2026-05-06 19:37 | -23.56733 | -46.33870 | 4191 ft | 167 kts | 265° |
| 2026-05-06 19:38 | -23.56867 | -46.35542 | 4191 ft | 167 kts | 265° |
| 2026-05-06 19:38 | -23.56969 | -46.36805 | 4191 ft | 167 kts | 265° |
| 2026-05-06 19:38 | -23.57070 | -46.38070 | 4191 ft | 167 kts | 265° |
| 2026-05-06 19:38 | -23.57172 | -46.39332 | 4191 ft | 167 kts | 265° |
| 2026-05-06 19:39 | -23.57263 | -46.40598 | 4191 ft | 167 kts | 266° |
| 2026-05-06 19:39 | -23.57329 | -46.41867 | 4191 ft | 167 kts | 267° |
| 2026-05-06 19:39 | -23.57388 | -46.43133 | 4191 ft | 167 kts | 267° |
| 2026-05-06 19:39 | -23.57446 | -46.44396 | 4191 ft | 167 kts | 267° |
| 2026-05-06 19:40 | -23.57504 | -46.45661 | 4191 ft | 167 kts | 267° |
| 2026-05-06 19:40 | -23.57561 | -46.46910 | 4191 ft | 167 kts | 267° |
| 2026-05-06 19:40 | -23.57510 | -46.48173 | 4187 ft | 167 kts | 281° |
| 2026-05-06 19:40 | -23.57048 | -46.49329 | 4199 ft | 166 kts | 299° |
| 2026-05-06 19:41 | -23.56449 | -46.50412 | 4193 ft | 167 kts | 302° |
| 2026-05-06 19:41 | -23.55834 | -46.51484 | 4191 ft | 167 kts | 302° |
| 2026-05-06 19:41 | -23.55214 | -46.52557 | 4191 ft | 167 kts | 302° |
| 2026-05-06 19:41 | -23.54596 | -46.53628 | 4191 ft | 167 kts | 302° |
| 2026-05-06 19:42 | -23.53975 | -46.54701 | 4191 ft | 167 kts | 302° |
| 2026-05-06 19:42 | -23.53359 | -46.55769 | 4191 ft | 167 kts | 302° |
| 2026-05-06 19:42 | -23.52801 | -46.56871 | 4191 ft | 167 kts | 291° |
| 2026-05-06 19:42 | -23.52552 | -46.58103 | 4199 ft | 166 kts | 278° |
| 2026-05-06 19:43 | -23.52420 | -46.59354 | 4195 ft | 167 kts | 275° |
| 2026-05-06 19:43 | -23.52360 | -46.60609 | 4190 ft | 161 kts | 271° |
| 2026-05-06 19:43 | -23.52334 | -46.61770 | 4179 ft | 148 kts | 271° |
| 2026-05-06 19:43 | -23.52312 | -46.62865 | 4179 ft | 139 kts | 271° |
| 2026-05-06 19:44 | -23.52292 | -46.63907 | 4101 ft | 139 kts | 271° |
| 2026-05-06 19:44 | -23.52272 | -46.64940 | 3927 ft | 132 kts | 271° |
| 2026-05-06 19:44 | -23.52253 | -46.65939 | 3759 ft | 131 kts | 271° |
| 2026-05-06 19:44 | -23.52234 | -46.66922 | 3632 ft | 128 kts | 271° |
| 2026-05-06 19:45 | -23.52215 | -46.67848 | 3581 ft | 120 kts | 271° |
| 2026-05-06 19:45 | -23.52194 | -46.68674 | 3632 ft | 102 kts | 276° |
| 2026-05-06 19:45 | -23.51930 | -46.69335 | 3606 ft | 94 kts | 313° |
| 2026-05-06 19:45 | -23.51376 | -46.69654 | 3547 ft | 90 kts | 352° |
| 2026-05-06 19:46 | -23.50752 | -46.69525 | 3421 ft | 96 kts | 23° |
| 2026-05-06 19:46 | -23.50302 | -46.69056 | 3402 ft | 93 kts | 60° |
| 2026-05-06 19:46 | -23.50079 | -46.68371 | 3330 ft | 99 kts | 89° |
| 2026-05-06 19:46 | -23.50189 | -46.67650 | 3435 ft | 81 kts | 105° |
| 2026-05-06 19:47 | -23.50345 | -46.67015 | 3261 ft | 89 kts | 102° |
| 2026-05-06 19:47 | -23.50461 | -46.66347 | 3062 ft | 89 kts | 100° |
| 2026-05-06 19:47 | -23.50573 | -46.65700 | 2826 ft | 84 kts | 102° |
| 2026-05-06 19:47 | -23.50682 | -46.65081 | 2613 ft | 83 kts | 101° |
| 2026-05-06 19:48 | -23.50794 | -46.64448 | 2456 ft | 86 kts | 100° |
| 2026-05-06 19:48 | -23.50896 | -46.63836 | 2374 ft | 73 kts | 101° |
| 2026-05-06 19:48 | -23.50967 | -46.63403 | 2374 ft | 41 kts | 100° |
| 2026-05-06 19:48 | -23.51018 | -46.63099 | 2374 ft | 26 kts | 100° |
| 2026-05-06 19:49 | -23.51077 | -46.63017 | 2374 ft | 14 kts | 191° |
| 2026-05-06 19:49 | -23.51111 | -46.63074 | 2374 ft | 13 kts | 280° |
| 2026-05-06 19:49 | -23.51090 | -46.63192 | 2374 ft | 18 kts | 280° |
| 2026-05-06 19:49 | -23.51068 | -46.63322 | 2374 ft | 17 kts | 280° |
| 2026-05-06 19:50 | -23.51054 | -46.63429 | 2374 ft | 11 kts | 245° |
| 2026-05-06 19:50 | -23.51139 | -46.63433 | 2374 ft | 15 kts | 171° |
| 2026-05-06 19:50 | -23.51227 | -46.63417 | 2374 ft | 9 kts | 171° |
| 2026-05-06 19:50 | -23.51262 | -46.63398 | 2374 ft | 7 kts | 92° |
| 2026-05-06 19:51 | -23.51246 | -46.63355 | 2374 ft | 9 kts | 356° |
| 2026-05-06 19:51 | -23.51180 | -46.63355 | 2374 ft | 5 kts | 2° |
| 2026-05-06 19:51 | -23.51168 | -46.63374 | 2374 ft | 5 kts | 274° |
| 2026-05-06 19:51 | -23.51167 | -46.63392 | 2374 ft | 0 kts | 274° |
| 2026-05-06 19:52 | -23.51167 | -46.63393 | 2374 ft | 0 kts | 274° |